createdAt,value
2018-05-02T00:00:10.449Z,1008.19
2018-05-02T00:01:19.101Z,1008.17
2018-05-02T00:02:27.730Z,1008.19
2018-05-02T00:03:36.362Z,1008.15
2018-05-02T00:04:45.012Z,1008.16
2018-05-02T00:05:53.651Z,1008.12
2018-05-02T00:07:02.279Z,1008.17
2018-05-02T00:08:11.462Z,1008.16
2018-05-02T00:09:20.097Z,1008.16
2018-05-02T00:10:28.739Z,1008.14
2018-05-02T00:11:37.373Z,1008.2
2018-05-02T00:12:46.008Z,1008.18
2018-05-02T00:13:54.657Z,1008.18
2018-05-02T00:15:03.297Z,1008.15
2018-05-02T00:16:12.188Z,1008.12
2018-05-02T00:17:20.837Z,1008.12
2018-05-02T00:18:29.476Z,1008.1
2018-05-02T00:19:38.102Z,1008.11
2018-05-02T00:20:46.750Z,1008.1
2018-05-02T00:21:55.395Z,1008.11
2018-05-02T00:23:04.021Z,1008.12
2018-05-02T00:24:12.658Z,1008.09
2018-05-02T00:25:21.307Z,1008.08
2018-05-02T00:26:29.937Z,1008.07
2018-05-02T00:27:38.569Z,1008.07
2018-05-02T00:28:47.225Z,1008.06
2018-05-02T00:29:55.864Z,1008.06
2018-05-02T00:31:04.488Z,1008.05
2018-05-02T00:32:13.135Z,1008.04
2018-05-02T00:33:21.775Z,1008.03
2018-05-02T00:34:30.403Z,1008.03
2018-05-02T00:35:39.051Z,1008.02
2018-05-02T00:36:47.688Z,1008.02
2018-05-02T00:37:56.315Z,1008.05
2018-05-02T00:39:05.232Z,1008.07
2018-05-02T00:40:13.864Z,1008.01
2018-05-02T00:41:22.513Z,1008.04
2018-05-02T00:42:31.675Z,1008.01
2018-05-02T00:43:40.570Z,1008.01
2018-05-02T00:44:49.484Z,1008.01
2018-05-02T00:45:58.130Z,1008
2018-05-02T00:47:06.751Z,1008.01
2018-05-02T00:48:15.397Z,1008.02
2018-05-02T00:49:24.040Z,1008.01
2018-05-02T00:50:32.670Z,1008.02
2018-05-02T00:51:41.307Z,1008.02
2018-05-02T00:52:49.958Z,1008.03
2018-05-02T00:53:58.589Z,1008.02
2018-05-02T00:55:07.232Z,1007.98
2018-05-02T00:56:15.859Z,1008
2018-05-02T00:57:24.501Z,1007.97
2018-05-02T00:58:33.147Z,1007.96
2018-05-02T00:59:41.773Z,1008
2018-05-02T01:00:50.418Z,1008.01
2018-05-02T01:01:59.063Z,1007.98
2018-05-02T01:03:07.692Z,1007.97
2018-05-02T01:04:16.326Z,1008
2018-05-02T01:05:25.274Z,1008.03
2018-05-02T01:06:33.904Z,1008.07
2018-05-02T01:07:42.803Z,1008.08
2018-05-02T01:08:51.442Z,1008.11
2018-05-02T01:10:00.354Z,1008.05
2018-05-02T01:11:09.000Z,1008.09
2018-05-02T01:12:17.627Z,1008.1
2018-05-02T01:13:26.522Z,1008.11
2018-05-02T01:14:35.170Z,1008.13
2018-05-02T01:15:43.802Z,1008.12
2018-05-02T01:16:52.434Z,1008.12
2018-05-02T01:18:01.083Z,1008.13
2018-05-02T01:19:09.726Z,1008.09
2018-05-02T01:20:18.351Z,1008.11
2018-05-02T01:21:26.998Z,1008.07
2018-05-02T01:22:35.641Z,1008.06
2018-05-02T01:23:44.283Z,1008.08
2018-05-02T01:24:52.910Z,1008.09
2018-05-02T01:26:01.819Z,1008.06
2018-05-02T01:27:10.472Z,1008.07
2018-05-02T01:28:19.373Z,1008.12
2018-05-02T01:29:28.001Z,1008.15
2018-05-02T01:30:36.655Z,1008.15
2018-05-02T01:31:45.290Z,1008.15
2018-05-02T01:32:53.919Z,1008.15
2018-05-02T01:34:02.832Z,1008.18
2018-05-02T01:35:11.475Z,1008.15
2018-05-02T01:36:20.104Z,1008.17
2018-05-02T01:37:29.280Z,1008.19
2018-05-02T01:38:37.914Z,1008.23
2018-05-02T01:39:46.560Z,1008.22
2018-05-02T01:40:55.204Z,1008.2
2018-05-02T01:42:03.828Z,1008.19
2018-05-02T01:43:12.474Z,1008.22
2018-05-02T01:44:21.116Z,1008.22
2018-05-02T01:45:29.746Z,1008.2
2018-05-02T01:46:38.644Z,1008.26
2018-05-02T01:47:47.295Z,1008.24
2018-05-02T01:48:55.923Z,1008.25
2018-05-02T01:50:04.562Z,1008.24
2018-05-02T01:51:13.211Z,1008.22
2018-05-02T01:52:21.840Z,1008.27
2018-05-02T01:53:30.485Z,1008.3
2018-05-02T01:54:39.110Z,1008.29
2018-05-02T01:55:47.751Z,1008.28
2018-05-02T01:56:56.670Z,1008.26
2018-05-02T01:58:05.299Z,1008.28
2018-05-02T01:59:13.933Z,1008.28
2018-05-02T02:00:22.583Z,1008.26
2018-05-02T02:01:31.213Z,1008.25
2018-05-02T02:02:39.841Z,1008.24
2018-05-02T02:03:48.490Z,1008.26
2018-05-02T02:04:57.126Z,1008.3
2018-05-02T02:06:05.752Z,1008.28
2018-05-02T02:07:14.397Z,1008.28
2018-05-02T02:08:23.103Z,1008.25
2018-05-02T02:09:31.949Z,1008.21
2018-05-02T02:10:40.844Z,1008.21
2018-05-02T02:11:49.475Z,1008.22
2018-05-02T02:12:58.127Z,1008.18
2018-05-02T02:14:06.763Z,1008.2
2018-05-02T02:15:15.391Z,1008.18
2018-05-02T02:16:24.038Z,1008.15
2018-05-02T02:17:32.689Z,1008.16
2018-05-02T02:18:41.313Z,1008.15
2018-05-02T02:19:50.222Z,1008.16
2018-05-02T02:20:58.866Z,1008.15
2018-05-02T02:22:07.489Z,1008.19
2018-05-02T02:23:16.130Z,1008.17
2018-05-02T02:24:24.778Z,1008.17
2018-05-02T02:25:33.405Z,1008.15
2018-05-02T02:26:42.041Z,1008.11
2018-05-02T02:27:50.686Z,1008.11
2018-05-02T02:28:59.321Z,1008.12
2018-05-02T02:30:08.221Z,1008.08
2018-05-02T02:31:16.871Z,1008.08
2018-05-02T02:32:25.518Z,1008.09
2018-05-02T02:33:34.157Z,1008.1
2018-05-02T02:34:43.346Z,1008.06
2018-05-02T02:35:52.523Z,1008.09
2018-05-02T02:37:01.430Z,1008.08
2018-05-02T02:38:10.072Z,1008.08
2018-05-02T02:39:18.974Z,1008
2018-05-02T02:40:27.893Z,1008.01
2018-05-02T02:41:36.531Z,1008
2018-05-02T02:42:45.159Z,1007.98
2018-05-02T02:43:53.812Z,1007.97
2018-05-02T02:45:02.736Z,1007.97
2018-05-02T02:46:11.361Z,1007.96
2018-05-02T02:47:20.003Z,1007.94
2018-05-02T02:48:28.925Z,1007.93
2018-05-02T02:49:37.828Z,1007.94
2018-05-02T02:50:46.458Z,1007.98
2018-05-02T02:51:55.090Z,1007.95
2018-05-02T02:53:04.013Z,1007.94
2018-05-02T02:54:12.921Z,1007.96
2018-05-02T02:55:21.599Z,1007.92
2018-05-02T02:56:30.193Z,1007.94
2018-05-02T02:57:39.114Z,1007.96
2018-05-02T02:58:48.004Z,1007.98
2018-05-02T02:59:56.655Z,1007.93
2018-05-02T03:01:05.318Z,1007.92
2018-05-02T03:02:13.960Z,1007.9
2018-05-02T03:03:22.595Z,1007.9
2018-05-02T03:04:31.516Z,1007.9
2018-05-02T03:05:40.164Z,1007.84
2018-05-02T03:06:49.078Z,1007.84
2018-05-02T03:07:57.977Z,1007.81
2018-05-02T03:09:06.622Z,1007.84
2018-05-02T03:10:15.278Z,1007.81
2018-05-02T03:11:24.163Z,1007.81
2018-05-02T03:12:33.072Z,1007.81
2018-05-02T03:13:41.718Z,1007.79
2018-05-02T03:14:50.627Z,1007.78
2018-05-02T03:15:59.540Z,1007.79
2018-05-02T03:17:08.171Z,1007.78
2018-05-02T03:18:16.804Z,1007.8
2018-05-02T03:19:25.428Z,1007.77
2018-05-02T03:20:34.083Z,1007.77
2018-05-02T03:21:42.986Z,1007.79
2018-05-02T03:22:51.611Z,1007.74
2018-05-02T03:24:00.518Z,1007.72
2018-05-02T03:25:09.164Z,1007.74
2018-05-02T03:26:18.048Z,1007.73
2018-05-02T03:27:26.688Z,1007.71
2018-05-02T03:28:35.335Z,1007.69
2018-05-02T03:29:43.963Z,1007.68
2018-05-02T03:30:52.595Z,1007.69
2018-05-02T03:32:01.521Z,1007.73
2018-05-02T03:33:10.150Z,1007.68
2018-05-02T03:34:18.785Z,1007.72
2018-05-02T03:35:27.422Z,1007.68
2018-05-02T03:36:36.065Z,1007.69
2018-05-02T03:37:44.712Z,1007.69
2018-05-02T03:38:53.337Z,1007.69
2018-05-02T03:40:01.986Z,1007.68
2018-05-02T03:41:10.635Z,1007.69
2018-05-02T03:42:19.268Z,1007.68
2018-05-02T03:43:27.897Z,1007.72
2018-05-02T03:44:36.545Z,1007.74
2018-05-02T03:45:45.178Z,1007.74
2018-05-02T03:46:53.810Z,1007.72
2018-05-02T03:48:02.458Z,1007.68
2018-05-02T03:49:11.384Z,1007.75
2018-05-02T03:50:20.018Z,1007.73
2018-05-02T03:51:28.650Z,1007.78
2018-05-02T03:52:37.278Z,1007.73
2018-05-02T03:53:45.931Z,1007.71
2018-05-02T03:54:54.832Z,1007.7
2018-05-02T03:56:03.457Z,1007.74
2018-05-02T03:57:12.106Z,1007.75
2018-05-02T03:58:21.013Z,1007.71
2018-05-02T03:59:29.645Z,1007.71
2018-05-02T04:00:38.292Z,1007.69
2018-05-02T04:01:46.935Z,1007.71
2018-05-02T04:02:55.561Z,1007.72
2018-05-02T04:04:04.207Z,1007.72
2018-05-02T04:05:12.835Z,1007.67
2018-05-02T04:06:21.481Z,1007.65
2018-05-02T04:07:30.374Z,1007.65
2018-05-02T04:08:39.046Z,1007.7
2018-05-02T04:09:47.646Z,1007.71
2018-05-02T04:10:56.611Z,1007.7
2018-05-02T04:12:05.191Z,1007.73
2018-05-02T04:13:13.832Z,1007.75
2018-05-02T04:14:22.480Z,1007.74
2018-05-02T04:15:31.103Z,1007.76
2018-05-02T04:16:39.737Z,1007.74
2018-05-02T04:17:48.385Z,1007.77
2018-05-02T04:18:57.018Z,1007.77
2018-05-02T04:20:05.646Z,1007.78
2018-05-02T04:21:14.297Z,1007.82
2018-05-02T04:22:23.200Z,1007.82
2018-05-02T04:23:31.825Z,1007.84
2018-05-02T04:24:40.475Z,1007.86
2018-05-02T04:25:49.112Z,1007.93
2018-05-02T04:26:57.740Z,1007.98
2018-05-02T04:28:06.652Z,1007.96
2018-05-02T04:29:15.299Z,1007.93
2018-05-02T04:30:23.922Z,1007.99
2018-05-02T04:31:32.563Z,1008.02
2018-05-02T04:32:41.211Z,1007.99
2018-05-02T04:33:49.840Z,1007.99
2018-05-02T04:34:58.478Z,1007.99
2018-05-02T04:36:07.365Z,1008.05
2018-05-02T04:37:16.008Z,1008.02
2018-05-02T04:38:24.655Z,1008.01
2018-05-02T04:39:33.553Z,1008.01
2018-05-02T04:40:42.188Z,1008.05
2018-05-02T04:41:50.841Z,1008.08
2018-05-02T04:42:59.468Z,1008.09
2018-05-02T04:44:08.105Z,1008.14
2018-05-02T04:45:17.283Z,1008.17
2018-05-02T04:46:25.917Z,1008.18
2018-05-02T04:47:34.548Z,1008.17
2018-05-02T04:48:43.197Z,1008.21
2018-05-02T04:49:51.834Z,1008.19
2018-05-02T04:51:00.481Z,1008.22
2018-05-02T04:52:09.104Z,1008.19
2018-05-02T04:53:17.740Z,1008.23
2018-05-02T04:54:26.388Z,1008.24
2018-05-02T04:55:35.023Z,1008.27
2018-05-02T04:56:43.654Z,1008.28
2018-05-02T04:57:52.303Z,1008.31
2018-05-02T04:59:00.940Z,1008.28
2018-05-02T05:00:09.829Z,1008.31
2018-05-02T05:01:18.481Z,1008.32
2018-05-02T05:02:27.116Z,1008.39
2018-05-02T05:03:36.033Z,1008.39
2018-05-02T05:04:44.658Z,1008.38
2018-05-02T05:05:53.293Z,1008.41
2018-05-02T05:07:02.205Z,1008.37
2018-05-02T05:08:10.841Z,1008.37
2018-05-02T05:09:19.740Z,1008.32
2018-05-02T05:10:28.389Z,1008.3
2018-05-02T05:11:37.025Z,1008.3
2018-05-02T05:12:45.651Z,1008.3
2018-05-02T05:13:54.299Z,1008.31
2018-05-02T05:15:02.945Z,1008.29
2018-05-02T05:16:11.578Z,1008.3
2018-05-02T05:17:20.216Z,1008.29
2018-05-02T05:18:28.845Z,1008.32
2018-05-02T05:19:38.026Z,1008.35
2018-05-02T05:20:46.666Z,1008.33
2018-05-02T05:21:55.294Z,1008.39
2018-05-02T05:23:03.940Z,1008.31
2018-05-02T05:24:12.588Z,1008.31
2018-05-02T05:25:21.475Z,1008.34
2018-05-02T05:26:30.383Z,1008.38
2018-05-02T05:27:39.031Z,1008.4
2018-05-02T05:28:47.918Z,1008.38
2018-05-02T05:29:56.556Z,1008.41
2018-05-02T05:31:05.737Z,1008.36
2018-05-02T05:32:14.370Z,1008.36
2018-05-02T05:33:23.015Z,1008.36
2018-05-02T05:34:31.904Z,1008.36
2018-05-02T05:35:40.544Z,1008.38
2018-05-02T05:36:49.193Z,1008.37
2018-05-02T05:37:58.091Z,1008.41
2018-05-02T05:39:06.987Z,1008.42
2018-05-02T05:40:15.634Z,1008.41
2018-05-02T05:41:24.271Z,1008.44
2018-05-02T05:42:33.163Z,1008.41
2018-05-02T05:43:41.959Z,1008.43
2018-05-02T05:44:50.445Z,1008.45
2018-05-02T05:45:59.072Z,1008.48
2018-05-02T05:47:07.718Z,1008.49
2018-05-02T05:48:16.361Z,1008.52
2018-05-02T05:49:25.013Z,1008.5
2018-05-02T05:50:33.642Z,1008.51
2018-05-02T05:51:42.273Z,1008.52
2018-05-02T05:52:50.923Z,1008.49
2018-05-02T05:53:59.590Z,1008.45
2018-05-02T05:55:08.196Z,1008.46
2018-05-02T05:56:17.115Z,1008.48
2018-05-02T05:57:25.751Z,1008.47
2018-05-02T05:58:34.378Z,1008.47
2018-05-02T05:59:43.024Z,1008.49
2018-05-02T06:00:51.950Z,1008.49
2018-05-02T06:02:00.837Z,1008.52
2018-05-02T06:03:09.472Z,1008.45
2018-05-02T06:04:18.099Z,1008.47
2018-05-02T06:05:26.751Z,1008.47
2018-05-02T06:06:35.390Z,1008.45
2018-05-02T06:07:44.022Z,1008.44
2018-05-02T06:08:52.669Z,1008.47
2018-05-02T06:10:01.317Z,1008.5
2018-05-02T06:11:09.945Z,1008.55
2018-05-02T06:12:18.657Z,1008.52
2018-05-02T06:13:27.237Z,1008.53
2018-05-02T06:14:35.863Z,1008.54
2018-05-02T06:15:44.500Z,1008.54
2018-05-02T06:16:53.421Z,1008.54
2018-05-02T06:18:02.315Z,1008.53
2018-05-02T06:19:10.949Z,1008.48
2018-05-02T06:20:19.597Z,1008.51
2018-05-02T06:21:28.236Z,1008.53
2018-05-02T06:22:37.132Z,1008.53
2018-05-02T06:23:46.052Z,1008.51
2018-05-02T06:24:54.693Z,1008.56
2018-05-02T06:26:03.627Z,1008.55
2018-05-02T06:27:12.606Z,1008.58
2018-05-02T06:28:21.520Z,1008.58
2018-05-02T06:29:30.143Z,1008.54
2018-05-02T06:30:38.783Z,1008.56
2018-05-02T06:31:47.462Z,1008.52
2018-05-02T06:32:56.070Z,1008.48
2018-05-02T06:34:04.989Z,1008.47
2018-05-02T06:35:13.650Z,1008.49
2018-05-02T06:36:22.633Z,1008.46
2018-05-02T06:37:31.346Z,1008.48
2018-05-02T06:38:40.250Z,1008.52
2018-05-02T06:39:49.232Z,1008.53
2018-05-02T06:40:57.902Z,1008.52
2018-05-02T06:42:06.602Z,1008.49
2018-05-02T06:43:15.513Z,1008.5
2018-05-02T06:44:24.167Z,1008.51
2018-05-02T06:45:33.062Z,1008.5
2018-05-02T06:46:41.711Z,1008.51
2018-05-02T06:47:50.340Z,1008.52
2018-05-02T06:48:59.253Z,1008.54
2018-05-02T06:50:08.166Z,1008.5
2018-05-02T06:51:16.797Z,1008.54
2018-05-02T06:52:25.435Z,1008.53
2018-05-02T06:53:34.090Z,1008.46
2018-05-02T06:54:42.803Z,1008.48
2018-05-02T06:55:51.612Z,1008.42
2018-05-02T06:57:00.263Z,1008.42
2018-05-02T06:58:08.906Z,1008.4
2018-05-02T06:59:17.796Z,1008.41
2018-05-02T07:00:26.445Z,1008.4
2018-05-02T07:01:35.082Z,1008.37
2018-05-02T07:02:43.733Z,1008.36
2018-05-02T07:03:52.372Z,1008.38
2018-05-02T07:05:01.007Z,1008.4
2018-05-02T07:06:09.661Z,1008.38
2018-05-02T07:07:18.623Z,1008.38
2018-05-02T07:08:27.256Z,1008.31
2018-05-02T07:09:35.981Z,1008.35
2018-05-02T07:10:44.921Z,1008.33
2018-05-02T07:11:53.598Z,1008.37
2018-05-02T07:13:02.249Z,1008.38
2018-05-02T07:14:10.900Z,1008.38
2018-05-02T07:15:19.842Z,1008.4
2018-05-02T07:16:28.752Z,1008.38
2018-05-02T07:17:37.643Z,1008.39
2018-05-02T07:18:46.311Z,1008.38
2018-05-02T07:19:54.939Z,1008.34
2018-05-02T07:21:03.835Z,1008.34
2018-05-02T07:22:12.486Z,1008.32
2018-05-02T07:23:21.456Z,1008.3
2018-05-02T07:24:30.084Z,1008.31
2018-05-02T07:25:38.726Z,1008.31
2018-05-02T07:26:47.385Z,1008.32
2018-05-02T07:27:56.023Z,1008.31
2018-05-02T07:29:04.666Z,1008.27
2018-05-02T07:30:13.574Z,1008.26
2018-05-02T07:31:22.227Z,1008.32
2018-05-02T07:32:30.927Z,1008.31
2018-05-02T07:33:39.947Z,1008.29
2018-05-02T07:34:48.588Z,1008.32
2018-05-02T07:35:57.239Z,1008.3
2018-05-02T07:37:05.872Z,1008.3
2018-05-02T07:38:14.516Z,1008.3
2018-05-02T07:39:23.166Z,1008.32
2018-05-02T07:40:32.100Z,1008.31
2018-05-02T07:41:40.737Z,1008.37
2018-05-02T07:42:49.657Z,1008.32
2018-05-02T07:43:58.298Z,1008.31
2018-05-02T07:45:06.949Z,1008.32
2018-05-02T07:46:15.847Z,1008.33
2018-05-02T07:47:24.485Z,1008.32
2018-05-02T07:48:33.175Z,1008.39
2018-05-02T07:49:41.774Z,1008.38
2018-05-02T07:50:50.412Z,1008.39
2018-05-02T07:51:59.063Z,1008.42
2018-05-02T07:53:07.707Z,1008.44
2018-05-02T07:54:16.337Z,1008.46
2018-05-02T07:55:24.997Z,1008.41
2018-05-02T07:56:33.709Z,1008.41
2018-05-02T07:57:42.542Z,1008.38
2018-05-02T07:58:53.243Z,1008.37
2018-05-02T08:00:01.879Z,1008.37
2018-05-02T08:01:10.534Z,1008.32
2018-05-02T08:02:19.170Z,1008.31
2018-05-02T08:03:27.802Z,1008.34
2018-05-02T08:04:36.454Z,1008.36
2018-05-02T08:05:45.102Z,1008.4
2018-05-02T08:06:53.731Z,1008.34
2018-05-02T08:08:02.383Z,1008.34
2018-05-02T08:09:11.030Z,1008.38
2018-05-02T08:10:19.665Z,1008.39
2018-05-02T08:11:28.588Z,1008.35
2018-05-02T08:12:37.241Z,1008.36
2018-05-02T08:13:46.144Z,1008.34
2018-05-02T08:14:54.781Z,1008.33
2018-05-02T08:16:03.701Z,1008.32
2018-05-02T08:17:12.610Z,1008.34
2018-05-02T08:18:21.244Z,1008.32
2018-05-02T08:19:29.897Z,1008.32
2018-05-02T08:20:38.800Z,1008.26
2018-05-02T08:21:47.439Z,1008.24
2018-05-02T08:22:56.096Z,1008.22
2018-05-02T08:24:04.738Z,1008.25
2018-05-02T08:25:13.377Z,1008.24
2018-05-02T08:26:22.020Z,1008.22
2018-05-02T08:27:30.672Z,1008.23
2018-05-02T08:28:39.315Z,1008.18
2018-05-02T08:29:47.952Z,1008.27
2018-05-02T08:30:56.592Z,1008.17
2018-05-02T08:32:05.238Z,1008.18
2018-05-02T08:33:13.886Z,1008.19
2018-05-02T08:34:22.518Z,1008.22
2018-05-02T08:35:31.166Z,1008.27
2018-05-02T08:36:40.075Z,1008.3
2018-05-02T08:37:48.973Z,1008.29
2018-05-02T08:38:57.723Z,1008.19
2018-05-02T08:40:06.272Z,1008.18
2018-05-02T08:41:14.909Z,1008.19
2018-05-02T08:42:23.547Z,1008.2
2018-05-02T08:43:32.190Z,1008.22
2018-05-02T08:44:40.841Z,1008.17
2018-05-02T08:45:49.493Z,1008.14
2018-05-02T08:46:58.133Z,1008.13
2018-05-02T08:48:06.787Z,1008.14
2018-05-02T08:49:15.446Z,1008.13
2018-05-02T08:50:24.070Z,1008.11
2018-05-02T08:51:32.709Z,1008.13
2018-05-02T08:52:41.365Z,1008.09
2018-05-02T08:53:50.006Z,1008.14
2018-05-02T08:54:58.643Z,1008.1
2018-05-02T08:56:07.300Z,1008.05
2018-05-02T08:57:15.940Z,1008.09
2018-05-02T08:58:24.600Z,1008.15
2018-05-02T08:59:33.495Z,1008.11
2018-05-02T09:00:42.141Z,1008.13
2018-05-02T09:01:50.835Z,1008.12
2018-05-02T09:02:59.812Z,1008.14
2018-05-02T09:04:08.448Z,1008.12
2018-05-02T09:05:17.106Z,1008.11
2018-05-02T09:06:25.748Z,1008.08
2018-05-02T09:07:34.380Z,1008.11
2018-05-02T09:08:43.037Z,1008.03
2018-05-02T09:09:51.968Z,1008.08
2018-05-02T09:11:00.632Z,1007.99
2018-05-02T09:12:09.551Z,1008
2018-05-02T09:13:18.200Z,1007.98
2018-05-02T09:14:26.918Z,1007.9
2018-05-02T09:15:35.740Z,1007.97
2018-05-02T09:16:44.328Z,1007.86
2018-05-02T09:17:52.982Z,1007.82
2018-05-02T09:19:01.629Z,1007.77
2018-05-02T09:20:10.744Z,1007.77
2018-05-02T09:21:19.484Z,1007.79
2018-05-02T09:22:28.224Z,1007.78
2018-05-02T09:23:36.860Z,1007.85
2018-05-02T09:24:45.569Z,1007.77
2018-05-02T09:25:54.254Z,1007.68
2018-05-02T09:27:02.910Z,1007.58
2018-05-02T09:28:12.598Z,1007.56
2018-05-02T09:29:21.236Z,1007.64
2018-05-02T09:30:29.904Z,1007.63
2018-05-02T09:31:38.560Z,1007.67
2018-05-02T09:32:47.193Z,1007.57
2018-05-02T09:33:55.843Z,1007.55
2018-05-02T09:35:04.771Z,1007.54
2018-05-02T09:36:13.686Z,1007.54
2018-05-02T09:37:22.326Z,1007.56
2018-05-02T09:38:30.985Z,1007.55
2018-05-02T09:39:39.620Z,1007.48
2018-05-02T09:40:48.259Z,1007.51
2018-05-02T09:41:57.175Z,1007.51
2018-05-02T09:43:05.826Z,1007.45
2018-05-02T09:44:14.556Z,1007.45
2018-05-02T09:45:23.114Z,1007.44
2018-05-02T09:46:31.755Z,1007.36
2018-05-02T09:47:40.409Z,1007.51
2018-05-02T09:48:49.048Z,1007.45
2018-05-02T09:49:57.686Z,1007.45
2018-05-02T09:51:06.345Z,1007.5
2018-05-02T09:52:14.983Z,1007.5
2018-05-02T09:53:23.618Z,1007.51
2018-05-02T09:54:32.274Z,1007.48
2018-05-02T09:55:40.931Z,1007.4
2018-05-02T09:56:49.572Z,1007.44
2018-05-02T09:57:58.209Z,1007.49
2018-05-02T09:59:07.114Z,1007.51
2018-05-02T10:00:15.774Z,1007.49
2018-05-02T10:01:24.675Z,1007.5
2018-05-02T10:02:33.313Z,1007.5
2018-05-02T10:03:41.972Z,1007.49
2018-05-02T10:04:50.883Z,1007.5
2018-05-02T10:05:59.517Z,1007.49
2018-05-02T10:07:08.166Z,1007.49
2018-05-02T10:08:16.816Z,1007.51
2018-05-02T10:09:25.460Z,1007.49
2018-05-02T10:10:34.108Z,1007.52
2018-05-02T10:11:42.763Z,1007.5
2018-05-02T10:12:51.416Z,1007.49
2018-05-02T10:14:00.305Z,1007.45
2018-05-02T10:15:08.965Z,1007.47
2018-05-02T10:16:17.609Z,1007.49
2018-05-02T10:17:26.504Z,1007.43
2018-05-02T10:18:35.195Z,1007.41
2018-05-02T10:19:43.802Z,1007.39
2018-05-02T10:20:52.436Z,1007.4
2018-05-02T10:22:01.092Z,1007.37
2018-05-02T10:23:09.741Z,1007.36
2018-05-02T10:24:18.379Z,1007.35
2018-05-02T10:25:27.031Z,1007.34
2018-05-02T10:26:35.687Z,1007.32
2018-05-02T10:27:44.453Z,1007.3
2018-05-02T10:28:53.359Z,1007.34
2018-05-02T10:30:02.262Z,1007.28
2018-05-02T10:31:10.921Z,1007.32
2018-05-02T10:32:19.564Z,1007.29
2018-05-02T10:33:28.467Z,1007.27
2018-05-02T10:34:37.128Z,1007.31
2018-05-02T10:35:45.783Z,1007.28
2018-05-02T10:36:54.831Z,1007.29
2018-05-02T10:38:03.692Z,1007.27
2018-05-02T10:39:12.350Z,1007.32
2018-05-02T10:40:20.985Z,1007.29
2018-05-02T10:41:29.900Z,1007.3
2018-05-02T10:42:38.534Z,1007.31
2018-05-02T10:43:47.737Z,1007.24
2018-05-02T10:44:56.389Z,1007.21
2018-05-02T10:46:05.290Z,1007.28
2018-05-02T10:47:13.937Z,1007.23
2018-05-02T10:48:22.596Z,1007.2
2018-05-02T10:49:31.228Z,1007.21
2018-05-02T10:50:39.880Z,1007.26
2018-05-02T10:51:49.059Z,1007.28
2018-05-02T10:52:57.962Z,1007.21
2018-05-02T10:54:06.597Z,1007.23
2018-05-02T10:55:15.514Z,1007.28
2018-05-02T10:56:24.171Z,1007.28
2018-05-02T10:57:33.358Z,1007.26
2018-05-02T10:58:41.995Z,1007.22
2018-05-02T10:59:50.644Z,1007.24
2018-05-02T11:00:59.298Z,1007.2
2018-05-02T11:02:08.465Z,1007.24
2018-05-02T11:03:17.104Z,1007.19
2018-05-02T11:04:25.764Z,1007.21
2018-05-02T11:05:34.408Z,1007.19
2018-05-02T11:06:43.040Z,1007.23
2018-05-02T11:07:51.703Z,1007.23
2018-05-02T11:09:00.348Z,1007.24
2018-05-02T11:10:09.355Z,1007.27
2018-05-02T11:11:17.991Z,1007.16
2018-05-02T11:12:26.902Z,1007.21
2018-05-02T11:13:35.558Z,1007.18
2018-05-02T11:14:44.203Z,1007.1
2018-05-02T11:15:52.836Z,1007.09
2018-05-02T11:17:01.762Z,1007.11
2018-05-02T11:18:10.671Z,1007.14
2018-05-02T11:19:19.307Z,1007.13
2018-05-02T11:20:27.963Z,1007.13
2018-05-02T11:21:36.622Z,1007.08
2018-05-02T11:22:45.522Z,1007.08
2018-05-02T11:23:54.433Z,1007.12
2018-05-02T11:25:03.077Z,1007.09
2018-05-02T11:26:12.009Z,1007.04
2018-05-02T11:27:20.660Z,1007.05
2018-05-02T11:28:29.296Z,1006.99
2018-05-02T11:29:37.950Z,1006.97
2018-05-02T11:30:46.872Z,1006.94
2018-05-02T11:31:55.789Z,1007
2018-05-02T11:33:04.701Z,1006.98
2018-05-02T11:34:13.621Z,1006.94
2018-05-02T11:35:22.256Z,1006.95
2018-05-02T11:36:30.900Z,1006.94
2018-05-02T11:37:39.557Z,1006.92
2018-05-02T11:38:48.194Z,1006.95
2018-05-02T11:39:56.849Z,1006.9
2018-05-02T11:41:05.749Z,1007
2018-05-02T11:42:14.669Z,1007
2018-05-02T11:43:23.333Z,1006.97
2018-05-02T11:44:31.970Z,1006.96
2018-05-02T11:45:40.610Z,1006.93
2018-05-02T11:46:49.277Z,1006.93
2018-05-02T11:47:57.915Z,1006.9
2018-05-02T11:49:06.823Z,1006.95
2018-05-02T11:50:15.479Z,1006.87
2018-05-02T11:51:24.126Z,1006.81
2018-05-02T11:52:32.759Z,1006.79
2018-05-02T11:53:41.415Z,1006.77
2018-05-02T11:54:50.055Z,1006.71
2018-05-02T11:55:58.977Z,1006.83
2018-05-02T11:57:07.621Z,1006.78
2018-05-02T11:58:16.261Z,1006.74
2018-05-02T11:59:24.923Z,1006.72
2018-05-02T12:00:33.560Z,1006.68
2018-05-02T12:01:42.198Z,1006.65
2018-05-02T12:02:50.858Z,1006.68
2018-05-02T12:03:59.505Z,1006.65
2018-05-02T12:05:08.139Z,1006.64
2018-05-02T12:06:16.797Z,1006.66
2018-05-02T12:07:25.450Z,1006.65
2018-05-02T12:08:34.090Z,1006.65
2018-05-02T12:09:42.740Z,1006.67
2018-05-02T12:10:51.397Z,1006.65
2018-05-02T12:12:00.038Z,1006.68
2018-05-02T12:13:08.688Z,1006.64
2018-05-02T12:14:17.343Z,1006.59
2018-05-02T12:15:25.984Z,1006.56
2018-05-02T12:16:34.893Z,1006.51
2018-05-02T12:17:43.563Z,1006.53
2018-05-02T12:18:52.473Z,1006.56
2018-05-02T12:20:01.113Z,1006.52
2018-05-02T12:21:09.770Z,1006.53
2018-05-02T12:22:18.421Z,1006.54
2018-05-02T12:23:27.068Z,1006.52
2018-05-02T12:24:35.711Z,1006.46
2018-05-02T12:25:44.350Z,1006.42
2018-05-02T12:26:53.013Z,1006.37
2018-05-02T12:28:01.656Z,1006.43
2018-05-02T12:29:10.302Z,1006.41
2018-05-02T12:30:18.962Z,1006.37
2018-05-02T12:31:27.886Z,1006.39
2018-05-02T12:32:36.520Z,1006.39
2018-05-02T12:33:45.175Z,1006.4
2018-05-02T12:34:54.106Z,1006.39
2018-05-02T12:36:02.743Z,1006.39
2018-05-02T12:37:11.396Z,1006.37
2018-05-02T12:38:20.034Z,1006.33
2018-05-02T12:39:28.695Z,1006.37
2018-05-02T12:40:37.346Z,1006.33
2018-05-02T12:41:45.987Z,1006.3
2018-05-02T12:42:54.634Z,1006.34
2018-05-02T12:44:03.299Z,1006.37
2018-05-02T12:45:11.931Z,1006.35
2018-05-02T12:46:20.848Z,1006.33
2018-05-02T12:47:29.507Z,1006.31
2018-05-02T12:48:38.146Z,1006.31
2018-05-02T12:49:47.066Z,1006.28
2018-05-02T12:50:55.989Z,1006.3
2018-05-02T12:52:04.645Z,1006.27
2018-05-02T12:53:13.299Z,1006.21
2018-05-02T12:54:21.935Z,1006.16
2018-05-02T12:55:30.854Z,1006.19
2018-05-02T12:56:39.515Z,1006.18
2018-05-02T12:57:48.416Z,1006.13
2018-05-02T12:58:57.069Z,1006.13
2018-05-02T13:00:05.725Z,1006.06
2018-05-02T13:01:14.377Z,1006.07
2018-05-02T13:02:23.060Z,1006.05
2018-05-02T13:03:31.966Z,1006.04
2018-05-02T13:04:40.608Z,1006.01
2018-05-02T13:05:49.250Z,1005.99
2018-05-02T13:06:57.901Z,1005.91
2018-05-02T13:08:06.634Z,1005.94
2018-05-02T13:09:15.209Z,1005.93
2018-05-02T13:10:23.852Z,1005.9
2018-05-02T13:11:32.492Z,1005.88
2018-05-02T13:12:41.152Z,1005.87
2018-05-02T13:13:49.796Z,1005.85
2018-05-02T13:14:58.701Z,1005.79
2018-05-02T13:16:07.360Z,1005.74
2018-05-02T13:17:16.013Z,1005.76
2018-05-02T13:18:24.647Z,1005.75
2018-05-02T13:19:33.303Z,1005.72
2018-05-02T13:20:42.230Z,1005.72
2018-05-02T13:21:50.876Z,1005.68
2018-05-02T13:22:59.519Z,1005.67
2018-05-02T13:24:08.156Z,1005.69
2018-05-02T13:25:16.823Z,1005.7
2018-05-02T13:26:25.471Z,1005.71
2018-05-02T13:27:34.107Z,1005.68
2018-05-02T13:28:42.753Z,1005.64
2018-05-02T13:29:51.402Z,1005.64
2018-05-02T13:31:00.035Z,1005.63
2018-05-02T13:32:08.688Z,1005.63
2018-05-02T13:33:17.401Z,1005.6
2018-05-02T13:34:25.981Z,1005.63
2018-05-02T13:35:34.626Z,1005.71
2018-05-02T13:36:43.274Z,1005.6
2018-05-02T13:37:51.933Z,1005.66
2018-05-02T13:39:00.588Z,1005.62
2018-05-02T13:40:09.484Z,1005.54
2018-05-02T13:41:18.135Z,1005.46
2018-05-02T13:42:26.865Z,1005.52
2018-05-02T13:43:35.704Z,1005.45
2018-05-02T13:44:44.345Z,1005.43
2018-05-02T13:45:53.006Z,1005.51
2018-05-02T13:47:01.666Z,1005.43
2018-05-02T13:48:10.571Z,1005.42
2018-05-02T13:49:19.514Z,1005.36
2018-05-02T13:50:28.143Z,1005.32
2018-05-02T13:51:36.797Z,1005.28
2018-05-02T13:52:45.432Z,1005.26
2018-05-02T13:53:54.079Z,1005.25